Terminal Aerodrome Forecast
Issued by NWS Green Bay, WI

Home | Current Version | Previous Version | Graphics & Text | Print | Product List | Glossary On
Versions: 1 2 3 4 5 6 7 8 9 10 11 12 13 14 15 16 17 18 19 20 21 22 23 24 25 26 27 28 29
000
FTUS43 KGRB 151500 AAA
TAFGRB
TAF AMD
KGRB 151516Z 1515/1612 29006KT P6SM OVC070
      TEMPO 1515/1519 5SM -SHRA BR BKN050
     FM152100 30008KT P6SM SCT050 BKN090
     FM160000 30004KT P6SM SKC
     FM160900 27004KT P6SM SKC=

USA.gov is the U.S. government's official web portal to all federal, state and local government web resources and services.